Time;durP1;ratioP1;P1;durP2;ratioP2;P2;SDS_P1;SDS_P2;PMS_P1;PMS_P2;Temp;Humidity;BMP_temperature;BMP_pressure;BME280_temperature;BME280_humidity;BME280_pressure;Samples;Min_cycle;Max_cycle;Signal;HPM_P1;HPM_P2
2022/12/12 00:00:08;;;;;;;12.60;6.82;;;;;;;-2.45;86.25;97758.53;5091177;28;20048;-62
2022/12/12 00:03:16;;;;;;;10.93;6.30;;;;;;;-2.94;82.95;97764.28;5086098;28;20044;-62
2022/12/12 00:06:03;;;;;;;11.50;6.85;;;;;;;-3.08;83.28;97759.53;5092803;28;20475;-61
2022/12/12 00:08:49;;;;;;;10.35;6.88;;;;;;;-2.75;85.19;97768.84;5105192;27;20067;-62
2022/12/12 00:11:33;;;;;;;11.07;6.63;;;;;;;-2.94;82.44;97771.97;5093895;28;20073;-62
2022/12/12 00:14:18;;;;;;;13.18;7.50;;;;;;;-3.00;81.59;97777.25;5093368;28;20143;-61
2022/12/12 00:17:03;;;;;;;9.82;6.18;;;;;;;-3.17;82.35;97782.88;5093649;28;20044;-62
2022/12/12 00:19:47;;;;;;;12.75;6.55;;;;;;;-3.22;81.32;97783.00;5094189;28;20090;-62
2022/12/12 00:22:31;;;;;;;11.32;6.65;;;;;;;-3.07;81.88;97784.31;5091742;28;20055;-63
2022/12/12 00:25:16;;;;;;;10.80;6.68;;;;;;;-3.09;82.42;97780.94;5081475;28;20072;-63
2022/12/12 00:28:01;;;;;;;10.65;6.88;;;;;;;-2.91;79.94;97774.44;5094238;28;20093;-62
2022/12/12 00:30:46;;;;;;;11.32;6.85;;;;;;;-3.16;79.86;97781.97;5093512;28;20043;-60
2022/12/12 00:33:31;;;;;;;10.43;6.65;;;;;;;-3.36;80.71;97776.53;5084043;28;20048;-61
2022/12/12 00:36:20;;;;;;;11.15;7.00;;;;;;;-3.42;81.49;97793.78;5091330;28;20082;-62
2022/12/12 00:39:05;;;;;;;12.50;6.75;;;;;;;-3.24;81.13;97782.19;5093993;28;20054;-61
2022/12/12 00:41:50;;;;;;;12.15;7.28;;;;;;;-3.31;82.94;97785.84;5090641;28;20056;-62
2022/12/12 00:44:35;;;;;;;11.75;6.75;;;;;;;-2.99;80.37;97794.31;5090877;28;20078;-62
2022/12/12 00:47:19;;;;;;;11.38;7.22;;;;;;;-3.08;80.71;97800.53;5105209;28;20042;-62
2022/12/12 00:50:04;;;;;;;10.10;6.22;;;;;;;-3.15;81.41;97797.31;5090587;28;20077;-61
2022/12/12 00:52:49;;;;;;;9.80;6.15;;;;;;;-3.25;82.02;97793.34;5090937;28;20044;-61
2022/12/12 00:55:34;;;;;;;10.63;6.72;;;;;;;-3.26;79.68;97800.19;5091005;28;20097;-61
2022/12/12 00:58:18;;;;;;;10.32;6.10;;;;;;;-3.02;80.14;97802.94;5090473;28;20068;-63
2022/12/12 01:01:11;;;;;;;11.68;6.65;;;;;;;-3.13;79.77;97808.38;5091363;28;20048;-63
2022/12/12 01:03:56;;;;;;;13.05;7.57;;;;;;;-3.21;79.22;97807.72;5090838;28;20474;-61
2022/12/12 01:06:41;;;;;;;10.20;6.35;;;;;;;-3.15;80.12;97807.56;5091858;28;20096;-62
2022/12/12 01:09:25;;;;;;;12.60;7.93;;;;;;;-3.11;79.86;97809.16;5091366;28;20052;-61
2022/12/12 01:12:10;;;;;;;11.63;7.55;;;;;;;-2.88;81.83;97809.38;5091235;28;20050;-61
2022/12/12 01:14:55;;;;;;;13.55;7.43;;;;;;;-3.23;79.59;97809.50;5091814;28;20124;-61
2022/12/12 01:17:39;;;;;;;10.13;6.57;;;;;;;-2.98;82.06;97808.81;5091278;28;20131;-61
2022/12/12 01:20:26;;;;;;;10.32;6.18;;;;;;;-3.02;81.06;97814.91;5091106;28;20062;-62
2022/12/12 01:23:11;;;;;;;13.52;7.22;;;;;;;-2.81;81.04;97812.63;5092314;28;20130;-61
2022/12/12 01:26:07;;;;;;;10.80;6.60;;;;;;;-2.94;79.98;97810.41;5091174;28;20135;-61
2022/12/12 01:28:52;;;;;;;10.25;6.07;;;;;;;-2.78;81.89;97809.97;5084955;28;20048;-64
2022/12/12 01:31:37;;;;;;;11.25;6.28;;;;;;;-3.06;80.31;97806.47;5089981;28;20055;-61
2022/12/12 01:34:21;;;;;;;9.77;5.75;;;;;;;-3.02;82.06;97810.63;5089423;28;20044;-62
2022/12/12 01:37:06;;;;;;;12.07;6.53;;;;;;;-3.05;80.84;97792.75;5075073;28;20144;-61
2022/12/12 01:39:51;;;;;;;11.55;6.47;;;;;;;-3.09;82.70;97796.31;5084277;28;20079;-61
2022/12/12 01:42:35;;;;;;;12.02;6.85;;;;;;;-3.32;82.38;97784.97;5096024;28;20543;-60
2022/12/12 01:45:58;;;;;;;11.48;7.03;;;;;;;-3.24;81.93;97779.63;5096106;28;20490;-61
2022/12/12 01:48:50;;;;;;;12.30;7.78;;;;;;;-3.26;81.65;97779.69;5088246;28;20062;-62
2022/12/12 01:51:36;;;;;;;11.60;7.15;;;;;;;-3.14;84.41;97783.63;5087299;28;20086;-63
2022/12/12 01:54:29;;;;;;;11.50;6.43;;;;;;;-3.01;82.85;97775.56;5089351;28;20044;-62
2022/12/12 01:57:19;;;;;;;12.23;7.75;;;;;;;-3.05;83.28;97774.00;5098315;28;20053;-62
2022/12/12 02:00:07;;;;;;;11.77;7.15;;;;;;;-2.95;84.24;97772.00;5087579;28;20048;-62
2022/12/12 02:02:54;;;;;;;11.48;7.43;;;;;;;-3.26;84.09;97777.13;5092120;28;20048;-62
2022/12/12 02:05:46;;;;;;;10.45;6.80;;;;;;;-3.35;84.35;97785.06;5097793;28;20490;-62
2022/12/12 02:08:31;;;;;;;11.98;6.93;;;;;;;-3.06;86.10;97777.44;5089528;28;20069;-62
2022/12/12 02:11:16;;;;;;;12.65;7.55;;;;;;;-3.02;83.57;97784.97;5089543;28;20441;-62
2022/12/12 02:14:01;;;;;;;10.43;6.60;;;;;;;-3.14;84.51;97775.94;5086283;28;20115;-62
2022/12/12 02:17:20;;;;;;;13.13;7.05;;;;;;;-3.26;84.26;97774.56;5089250;28;20448;-62
2022/12/12 02:20:30;;;;;;;11.38;6.60;;;;;;;-3.37;84.74;97777.44;5100748;28;20432;-62
2022/12/12 02:23:32;;;;;;;11.88;6.90;;;;;;;-3.38;85.21;97772.34;5091374;28;20471;-62
2022/12/12 02:26:35;;;;;;;11.82;7.72;;;;;;;-3.07;86.15;97773.19;5088090;28;20040;-61
2022/12/12 02:29:50;;;;;;;13.10;7.00;;;;;;;-3.03;85.63;97777.34;5089412;28;20058;-62
2022/12/12 02:33:01;;;;;;;13.77;7.63;;;;;;;-3.02;86.88;97784.16;5089475;28;20490;-62
2022/12/12 02:35:51;;;;;;;12.52;7.30;;;;;;;-3.08;85.15;97776.66;5080813;28;20043;-62
2022/12/12 02:39:06;;;;;;;10.60;6.40;;;;;;;-2.90;86.35;97777.81;5089863;28;20043;-62
2022/12/12 02:41:58;;;;;;;11.75;7.40;;;;;;;-3.11;84.49;97775.00;5089381;28;20395;-62
2022/12/12 02:44:47;;;;;;;;;;;;;;;-3.19;86.29;97777.78;5093138;28;20050;-62
2022/12/12 02:47:39;;;;;;;12.88;7.78;;;;;;;-3.29;85.55;97777.22;5102245;28;20393;-62
2022/12/12 02:50:26;;;;;;;11.93;7.93;;;;;;;-3.17;86.62;97770.91;5103323;28;20071;-62
2022/12/12 02:53:10;;;;;;;12.50;6.68;;;;;;;-3.10;87.93;97777.53;5103886;28;20043;-62
2022/12/12 02:56:04;;;;;;;11.40;6.85;;;;;;;-3.26;87.05;97784.81;5099808;28;20047;-62
2022/12/12 02:58:49;;;;;;;12.80;7.15;;;;;;;-3.37;89.05;97781.69;5093556;28;20085;-62
2022/12/12 03:01:36;;;;;;;10.25;6.53;;;;;;;-3.12;89.25;97794.66;5106653;28;20057;-61
2022/12/12 03:08:37;;;;;;;12.30;7.80;;;;;;;-3.18;88.19;97794.00;5101464;28;20127;-62
2022/12/12 03:11:33;;;;;;;12.50;6.95;;;;;;;-3.20;90.81;97798.34;5109220;28;20047;-62
2022/12/12 03:14:30;;;;;;;14.35;7.32;;;;;;;-3.28;90.47;97796.81;5111844;28;20051;-62
2022/12/12 03:17:35;;;;;;;13.95;8.20;;;;;;;-3.51;91.18;97797.47;5071330;28;20059;-61
2022/12/12 03:20:27;;;;;;;11.95;7.38;;;;;;;-3.41;92.43;97800.59;5088631;28;20051;-60
2022/12/12 03:23:17;;;;;;;11.75;7.22;;;;;;;-3.30;92.06;97803.72;5092598;28;20040;-61
2022/12/12 03:26:02;;;;;;;11.38;6.85;;;;;;;-3.37;92.02;97805.59;5091602;28;20052;-61
2022/12/12 03:28:58;;;;;;;10.93;6.70;;;;;;;-3.40;89.93;97804.84;5103467;28;20051;-61
2022/12/12 03:31:49;;;;;;;11.88;6.90;;;;;;;-3.27;91.78;97808.75;5091775;28;20398;-61
2022/12/12 03:34:42;;;;;;;10.05;6.28;;;;;;;-3.07;92.15;97803.94;5110402;28;20490;-62
2022/12/12 03:37:48;;;;;;;11.30;6.38;;;;;;;-3.34;89.72;97808.09;5110818;28;20050;-62
2022/12/12 03:40:42;;;;;;;12.35;7.38;;;;;;;-3.39;87.60;97811.63;5098094;28;20048;-62
2022/12/12 03:43:52;;;;;;;12.05;6.80;;;;;;;-3.31;88.98;97821.69;5110998;28;20131;-62
2022/12/12 03:46:52;;;;;;;10.82;6.10;;;;;;;-3.07;88.29;97820.19;5022636;28;20052;-62
2022/12/12 03:49:55;;;;;;;9.00;5.47;;;;;;;-3.10;90.01;97825.41;5020782;28;20045;-62
2022/12/12 03:52:49;;;;;;;10.52;6.03;;;;;;;-3.25;91.12;97824.09;5019442;28;20081;-62
2022/12/12 03:55:47;;;;;;;9.70;6.05;;;;;;;-3.13;92.73;97833.13;5028656;28;20052;-61
2022/12/12 03:58:44;;;;;;;11.18;6.20;;;;;;;-3.44;90.00;97829.69;5028252;28;20206;-62
2022/12/12 04:01:53;;;;;;;9.88;6.05;;;;;;;-3.55;90.55;97839.38;5027655;28;20458;-61
2022/12/12 04:04:50;;;;;;;9.75;5.82;;;;;;;-3.52;89.04;97829.06;5029364;28;20100;-61
2022/12/12 04:07:40;;;;;;;10.93;6.30;;;;;;;-3.34;89.49;97825.16;5021909;28;20203;-62
2022/12/12 04:13:33;;;;;;;9.90;6.45;;;;;;;-3.57;85.90;97829.19;5016662;28;20068;-62
2022/12/12 04:16:26;;;;;;;11.40;6.22;;;;;;;-3.33;86.26;97834.56;5027542;28;20065;-61
2022/12/12 04:23:14;;;;;;;11.10;6.65;;;;;;;-3.26;85.50;97835.19;5007436;28;20124;-61
2022/12/12 04:29:04;;;;;;;9.82;5.45;;;;;;;-3.07;85.59;97843.25;5088345;28;20513;-61
2022/12/12 04:31:58;;;;;;;9.40;5.95;;;;;;;-3.02;83.63;97838.00;5098632;28;20039;-61
2022/12/12 04:34:46;;;;;;;10.15;5.45;;;;;;;-2.94;85.54;97842.91;5109871;28;20143;-61
2022/12/12 04:37:59;;;;;;;10.65;5.63;;;;;;;-3.01;84.97;97842.22;5109772;28;20562;-62
2022/12/12 04:40:49;;;;;;;9.38;5.97;;;;;;;-3.24;84.80;97839.41;5030739;28;20164;-61
2022/12/12 04:43:37;;;;;;;9.68;5.63;;;;;;;-3.04;84.01;97842.31;5017257;28;20251;-62
2022/12/12 04:46:25;;;;;;;10.75;6.20;;;;;;;-3.25;84.57;97847.16;5020731;28;20064;-62
2022/12/12 04:49:17;;;;;;;9.45;5.68;;;;;;;-3.27;85.19;97848.91;5016000;28;20107;-62
2022/12/12 04:52:06;;;;;;;8.45;5.50;;;;;;;-3.22;86.18;97845.34;5033217;28;20573;-61
2022/12/12 04:55:14;;;;;;;9.48;5.47;;;;;;;-3.25;86.52;97847.16;5037278;28;20052;-62
2022/12/12 04:58:00;;;;;;;11.63;5.88;;;;;;;-3.11;86.21;97855.31;5034006;28;20579;-61
2022/12/12 05:00:58;;;;;;;9.30;5.85;;;;;;;-3.29;88.34;97836.13;5010938;28;20045;-62
2022/12/12 05:03:48;;;;;;;8.35;5.80;;;;;;;-3.11;87.30;97850.19;5032584;28;20132;-62
2022/12/12 05:06:42;;;;;;;12.02;6.63;;;;;;;-3.24;86.58;97856.50;5025196;28;20049;-62
2022/12/12 05:09:27;;;;;;;10.57;6.50;;;;;;;-3.24;89.62;97847.09;5030838;28;20041;-60
2022/12/12 05:12:15;;;;;;;9.48;5.93;;;;;;;-2.82;91.37;97841.72;5029179;28;20056;-60
2022/12/12 05:14:59;;;;;;;8.98;5.65;;;;;;;-2.66;95.38;97849.81;5041430;28;20413;-61
2022/12/12 05:17:59;;;;;;;9.82;5.75;;;;;;;-2.91;91.80;97846.22;5076791;28;20054;-60
2022/12/12 05:20:44;;;;;;;9.48;5.47;;;;;;;-3.18;91.10;97845.28;5099785;28;20051;-61
2022/12/12 05:23:29;;;;;;;8.30;5.22;;;;;;;-3.11;92.36;97847.63;5079875;28;20135;-61
2022/12/12 05:26:23;;;;;;;10.32;5.93;;;;;;;-3.25;92.25;97849.72;5090273;28;20376;-61
2022/12/12 05:29:08;;;;;;;9.30;5.53;;;;;;;-3.24;90.66;97847.09;5089566;28;20048;-61
2022/12/12 05:31:52;;;;;;;8.95;5.15;;;;;;;-3.40;90.67;97843.28;5089319;28;20048;-61
2022/12/12 05:34:37;;;;;;;10.13;5.20;;;;;;;-3.25;93.71;97840.28;5090688;28;20123;-60
2022/12/12 05:37:21;;;;;;;7.95;5.40;;;;;;;-3.12;92.14;97850.22;5090115;28;20071;-60
2022/12/12 05:40:07;;;;;;;9.80;5.28;;;;;;;-3.42;90.81;97851.00;5090842;28;20052;-60
2022/12/12 05:42:52;;;;;;;9.75;5.90;;;;;;;-3.39;92.51;97848.34;5079947;28;20132;-59
2022/12/12 05:45:36;;;;;;;8.02;5.15;;;;;;;-3.43;90.29;97849.31;5091275;28;20058;-62
2022/12/12 05:48:21;;;;;;;10.15;5.88;;;;;;;-3.46;89.24;97849.41;5090342;28;20471;-59
2022/12/12 05:51:06;;;;;;;10.25;5.57;;;;;;;-3.44;90.74;97854.50;5090937;28;20052;-60
2022/12/12 05:53:50;;;;;;;8.82;5.30;;;;;;;-3.47;89.83;97858.81;5090747;28;20052;-60
2022/12/12 05:56:35;;;;;;;9.77;5.55;;;;;;;-3.78;87.06;97858.72;5088803;28;20451;-60
2022/12/12 05:59:20;;;;;;;10.05;5.65;;;;;;;-3.61;87.41;97851.47;5089902;28;20040;-60
2022/12/12 06:02:05;;;;;;;9.50;6.10;;;;;;;-3.62;87.69;97848.94;5107152;28;20043;-60
2022/12/12 06:04:50;;;;;;;9.35;5.53;;;;;;;-3.57;90.31;97857.34;5107119;28;20111;-60
2022/12/12 06:07:35;;;;;;;11.65;6.13;;;;;;;-3.41;88.25;97862.09;5089617;28;20495;-59
2022/12/12 06:10:19;;;;;;;9.77;5.35;;;;;;;-3.32;87.86;97866.97;5090797;28;20052;-61
2022/12/12 06:13:04;;;;;;;10.93;6.50;;;;;;;-3.35;87.75;97867.91;5094840;28;20428;-59
2022/12/12 06:15:49;;;;;;;8.77;5.45;;;;;;;-3.23;87.64;97868.44;5085680;28;20486;-61
2022/12/12 06:18:35;;;;;;;10.18;5.95;;;;;;;-3.25;87.95;97872.78;5093810;28;20048;-60
2022/12/12 06:21:19;;;;;;;11.10;6.07;;;;;;;-3.28;88.41;97872.84;5086058;28;20052;-60
2022/12/12 06:24:05;;;;;;;10.48;5.90;;;;;;;-3.20;88.07;97875.22;5082700;28;20051;-60
2022/12/12 06:26:50;;;;;;;10.07;6.18;;;;;;;-3.65;87.49;97878.03;5089788;28;20048;-60
2022/12/12 06:29:34;;;;;;;9.27;6.18;;;;;;;-3.44;89.76;97882.66;5093722;28;20206;-60
2022/12/12 06:32:18;;;;;;;11.52;6.53;;;;;;;-3.38;88.09;97875.63;5093013;28;20109;-60
2022/12/12 06:35:03;;;;;;;10.30;6.22;;;;;;;-3.46;87.49;97885.28;5092032;28;20043;-60
2022/12/12 06:37:48;;;;;;;9.57;6.05;;;;;;;-3.39;87.90;97891.91;5093431;28;20048;-60
2022/12/12 06:40:32;;;;;;;10.85;6.53;;;;;;;-3.60;85.57;97883.88;5093569;28;20047;-60
2022/12/12 06:43:17;;;;;;;8.60;5.32;;;;;;;-3.41;89.08;97885.16;5107206;27;20048;-60
2022/12/12 06:46:05;;;;;;;8.88;5.90;;;;;;;-3.42;87.89;97886.00;5081830;28;20051;-61
2022/12/12 06:48:50;;;;;;;9.25;5.85;;;;;;;-3.48;85.61;97885.28;5093450;28;20040;-61
2022/12/12 06:51:42;;;;;;;10.32;5.95;;;;;;;-3.55;86.50;97890.59;5093984;28;20139;-61
2022/12/12 06:54:27;;;;;;;10.05;5.70;;;;;;;-3.35;88.59;97898.66;5084178;28;20140;-60
2022/12/12 06:57:11;;;;;;;9.10;5.95;;;;;;;-3.43;86.60;97900.56;5093082;28;20113;-61
2022/12/12 06:59:57;;;;;;;10.80;5.90;;;;;;;-3.54;85.23;97890.56;5095658;28;20131;-59
2022/12/12 07:02:42;;;;;;;8.82;5.40;;;;;;;-3.49;86.70;97896.41;5106052;28;20040;-61
2022/12/12 07:05:27;;;;;;;12.23;5.95;;;;;;;-3.71;85.43;97907.22;5092843;28;20068;-60
2022/12/12 07:08:13;;;;;;;10.80;6.63;;;;;;;-3.47;84.64;97912.59;5094791;28;20370;-59
2022/12/12 07:11:06;;;;;;;9.35;5.20;;;;;;;-2.61;83.55;97901.78;5095159;28;20048;-53
2022/12/12 07:13:52;;;;;;;8.88;5.28;;;;;;;-2.20;79.81;97913.47;5095647;28;20059;-52
2022/12/12 07:16:37;;;;;;;9.13;5.57;;;;;;;-2.10;78.66;97914.84;5100979;28;20107;-49
2022/12/12 07:19:22;;;;;;;13.07;5.38;;;;;;;-2.17;80.55;97924.47;5084844;28;20091;-52
2022/12/12 07:22:06;;;;;;;11.60;5.80;;;;;;;-1.32;81.34;97921.84;5099553;28;20169;-53
2022/12/12 07:24:51;;;;;;;10.13;5.00;;;;;;;-1.05;82.40;97916.66;5091269;28;20056;-52
2022/12/12 07:27:36;;;;;;;9.40;5.35;;;;;;;-0.34;78.51;97922.75;5101138;28;20044;-53
2022/12/12 07:30:20;;;;;;;8.00;4.80;;;;;;;-1.19;79.80;97928.25;5106064;28;20127;-53
2022/12/12 07:33:06;;;;;;;9.38;4.60;;;;;;;-1.86;81.88;97932.97;5097175;28;20060;-50
2022/12/12 07:35:56;;;;;;;9.70;4.90;;;;;;;-1.26;81.13;97926.78;5106192;28;20087;-52
2022/12/12 07:38:41;;;;;;;9.45;4.75;;;;;;;-1.51;74.10;97932.72;5099445;28;20109;-52
2022/12/12 07:41:26;;;;;;;8.40;4.60;;;;;;;-1.47;77.62;97928.34;5087690;28;20043;-53
2022/12/12 07:44:11;;;;;;;9.88;5.07;;;;;;;-1.28;85.61;97937.13;5106181;28;20486;-51
2022/12/12 07:46:58;;;;;;;8.18;4.60;;;;;;;-1.14;86.69;97931.50;5108135;28;20059;-55
2022/12/12 07:49:43;;;;;;;9.70;4.65;;;;;;;-1.77;79.33;97937.81;5100159;28;20048;-54
2022/12/12 07:52:28;;;;;;;9.00;4.72;;;;;;;-1.90;83.83;97936.50;5103036;28;20573;-55
2022/12/12 07:55:13;;;;;;;8.45;5.18;;;;;;;-2.10;79.62;97940.53;5094041;28;20076;-50
2022/12/12 07:57:58;;;;;;;9.48;4.90;;;;;;;-2.07;75.62;97937.03;5091415;28;20119;-56
2022/12/12 08:00:42;;;;;;;10.25;5.13;;;;;;;-1.51;75.28;97940.44;5103981;28;20395;-52
2022/12/12 08:03:28;;;;;;;11.77;5.47;;;;;;;-1.42;73.67;97934.16;5091379;28;20052;-53
2022/12/12 08:06:15;;;;;;;7.55;4.75;;;;;;;-1.10;77.23;97939.09;5090503;28;20448;-52
2022/12/12 08:09:00;;;;;;;7.68;4.50;;;;;;;-1.53;72.76;97944.78;5087635;28;20060;-52
2022/12/12 08:11:45;;;;;;;8.75;4.93;;;;;;;-1.26;73.47;97942.22;5090702;28;20042;-60
2022/12/12 08:14:29;;;;;;;7.97;5.03;;;;;;;-1.50;72.61;97935.25;5107970;28;20109;-53
2022/12/12 08:17:14;;;;;;;8.88;4.53;;;;;;;-1.94;72.56;97943.47;5099251;28;20052;-53
2022/12/12 08:19:58;;;;;;;8.55;4.70;;;;;;;-1.41;77.01;97948.69;5089851;28;20103;-55
2022/12/12 08:22:43;;;;;;;8.05;4.53;;;;;;;-1.14;74.80;97951.22;5092500;28;20055;-58
2022/12/12 08:25:28;;;;;;;6.13;3.85;;;;;;;-1.70;71.35;97959.03;5085664;28;20050;-55
2022/12/12 08:28:12;;;;;;;6.63;4.40;;;;;;;-1.46;73.12;97960.84;5095274;28;20047;-52
2022/12/12 09:10:10;;;;;;;3.03;1.58;;;;;;;-2.14;74.35;97995.41;5068931;27;20407;-55
2022/12/12 09:12:55;;;;;;;6.55;4.13;;;;;;;-2.07;75.19;97996.09;5066349;28;20044;-52
2022/12/12 09:15:40;;;;;;;11.05;4.85;;;;;;;-1.06;79.19;97992.94;5063826;28;20086;-49
2022/12/12 09:18:26;;;;;;;6.88;4.18;;;;;;;-0.48;83.23;97985.84;5066230;28;20041;-54
2022/12/12 09:21:10;;;;;;;6.95;4.15;;;;;;;-1.29;76.27;97996.28;5066720;28;20076;-52
2022/12/12 09:23:55;;;;;;;8.13;4.00;;;;;;;-1.18;77.92;97995.94;5059637;28;20055;-52
2022/12/12 09:26:39;;;;;;;9.05;4.85;;;;;;;-1.05;83.29;97998.94;5055019;28;20120;-51
2022/12/12 09:29:24;;;;;;;6.80;4.03;;;;;;;-1.24;79.84;97997.00;5065612;28;20059;-54
2022/12/12 09:32:09;;;;;;;8.52;4.55;;;;;;;-1.56;74.50;98003.97;5066039;28;20051;-60
2022/12/12 09:34:54;;;;;;;8.60;3.83;;;;;;;-1.77;77.68;98006.31;5066181;28;20476;-54
2022/12/12 09:37:38;;;;;;;7.03;4.15;;;;;;;-2.09;79.00;98013.25;5064914;28;20041;-55
2022/12/12 09:40:35;;;;;;;8.70;4.13;;;;;;;-2.38;79.03;98010.63;5093093;28;20044;-54
2022/12/12 09:43:24;;;;;;;7.35;4.57;;;;;;;-2.27;83.68;98011.16;5063886;28;20055;-54
2022/12/12 09:46:26;;;;;;;6.03;3.63;;;;;;;-2.29;82.70;98020.66;5063430;28;20126;-57
2022/12/12 09:49:12;;;;;;;8.60;4.90;;;;;;;-2.17;83.55;98013.47;5064503;28;20041;-58
2022/12/12 09:51:58;;;;;;;8.57;5.28;;;;;;;-2.42;83.56;98009.03;5063997;28;20123;-50
2022/12/12 09:54:44;;;;;;;7.15;4.70;;;;;;;-1.79;83.75;98010.66;5065982;28;20144;-51
2022/12/12 09:57:34;;;;;;;6.90;4.50;;;;;;;-1.75;81.65;98019.97;5059618;28;20118;-57
2022/12/12 10:00:19;;;;;;;7.28;4.25;;;;;;;-2.03;79.84;98015.63;5061403;28;20067;-54
2022/12/12 10:03:21;;;;;;;7.35;3.90;;;;;;;-2.23;77.69;98023.03;5064665;28;20094;-55
2022/12/12 10:06:08;;;;;;;6.38;4.20;;;;;;;-1.50;75.73;98022.63;5061549;28;20044;-55
2022/12/12 10:09:20;;;;;;;10.07;4.88;;;;;;;-1.46;77.10;98027.66;5064543;28;20048;-49
2022/12/12 10:12:10;;;;;;;9.57;4.65;;;;;;;-1.78;71.38;98026.00;5064588;28;20121;-53
2022/12/12 10:15:03;;;;;;;5.72;3.92;;;;;;;-1.58;74.03;98037.41;5061878;28;20485;-53
2022/12/12 10:17:48;;;;;;;5.28;3.50;;;;;;;-1.41;72.25;98024.06;5064400;28;20043;-53
2022/12/12 10:20:44;;;;;;;5.55;3.67;;;;;;;-1.34;70.46;98022.16;5056373;28;20049;-57
2022/12/12 10:23:47;;;;;;;6.47;4.25;;;;;;;-1.33;70.43;98018.69;5052664;28;20123;-54
2022/12/12 10:26:32;;;;;;;6.60;4.38;;;;;;;-1.41;70.10;98016.34;5039073;28;20041;-55
2022/12/12 10:29:25;;;;;;;7.63;4.45;;;;;;;-1.26;71.43;98021.91;5052245;28;20052;-60
2022/12/12 10:32:21;;;;;;;6.15;3.63;;;;;;;-1.42;70.85;98018.97;5052041;28;20052;-53
2022/12/12 10:35:37;;;;;;;6.85;4.03;;;;;;;-1.41;71.02;98011.22;5051638;28;20045;-52
2022/12/12 10:38:51;;;;;;;6.05;3.85;;;;;;;-0.88;70.25;98017.22;5043513;28;20395;-53
2022/12/12 10:42:06;;;;;;;7.68;4.40;;;;;;;-0.42;68.96;98018.25;5042252;28;20395;-52
2022/12/12 10:45:02;;;;;;;6.20;3.80;;;;;;;-0.50;66.02;97995.34;5050351;28;20387;-52
2022/12/12 10:47:46;;;;;;;5.75;3.75;;;;;;;-0.31;67.90;98020.44;5042833;28;20063;-51
2022/12/12 10:50:41;;;;;;;5.93;4.00;;;;;;;-0.23;73.08;98012.44;5051533;28;20136;-55
2022/12/12 10:53:28;;;;;;;5.82;3.38;;;;;;;-0.11;69.21;98008.59;5044501;28;20041;-55
2022/12/12 10:56:19;;;;;;;6.57;4.15;;;;;;;0.01;68.30;98010.69;5051633;28;20078;-55
2022/12/12 10:59:04;;;;;;;5.82;3.75;;;;;;;-0.04;67.66;98010.03;5051207;28;20045;-57
2022/12/12 11:01:57;;;;;;;6.72;3.97;;;;;;;0.18;67.58;98004.06;5051919;28;20128;-53
2022/12/12 11:04:43;;;;;;;7.03;4.10;;;;;;;0.41;66.81;97999.78;5051829;28;20049;-56
2022/12/12 11:07:28;;;;;;;6.07;4.00;;;;;;;0.27;67.54;98005.44;5040668;28;20056;-54
2022/12/12 11:10:32;;;;;;;6.90;4.00;;;;;;;0.06;67.61;98013.94;5050545;28;20063;-55
2022/12/12 11:13:16;;;;;;;6.93;4.03;;;;;;;-0.37;71.47;98003.47;5051449;28;20045;-54
2022/12/12 11:16:08;;;;;;;6.70;3.55;;;;;;;-0.33;67.18;98009.34;5050606;28;20045;-52
2022/12/12 11:19:00;;;;;;;6.38;3.40;;;;;;;-0.65;67.67;98009.59;5071177;28;20500;-55
2022/12/12 11:21:46;;;;;;;5.75;3.45;;;;;;;-0.34;67.35;98012.84;5050539;28;20041;-54
2022/12/12 11:24:33;;;;;;;6.65;3.80;;;;;;;0.01;69.86;98008.13;5050543;28;20033;-53
2022/12/12 11:27:31;;;;;;;7.50;4.30;;;;;;;0.12;67.66;98002.56;5051472;28;20080;-51
2022/12/12 11:30:22;;;;;;;6.20;3.95;;;;;;;-0.14;64.49;97999.22;5059666;28;20109;-54
2022/12/12 11:33:18;;;;;;;5.85;3.92;;;;;;;-0.60;66.27;98007.69;5048027;28;20689;-55
2022/12/12 11:36:05;;;;;;;7.70;4.28;;;;;;;0.02;71.71;98012.38;5035256;28;20841;-55
2022/12/12 11:38:55;;;;;;;6.53;4.13;;;;;;;0.13;66.82;98013.72;5049974;28;20064;-55
2022/12/12 11:42:15;;;;;;;6.73;3.87;;;;;;;0.00;67.33;98021.91;5051100;28;20048;-55
2022/12/12 11:45:20;;;;;;;5.28;3.33;;;;;;;-0.66;66.15;98024.22;5042450;28;20420;-54
2022/12/12 11:48:32;;;;;;;8.43;5.00;;;;;;;-1.00;66.79;97999.63;5050065;28;20041;-54
2022/12/12 11:51:42;;;;;;;6.03;3.67;;;;;;;-1.19;69.93;98020.78;5045392;28;20110;-52
2022/12/12 11:54:30;;;;;;;5.88;3.58;;;;;;;-0.70;71.75;98016.66;5044955;28;20045;-52
2022/12/12 11:57:21;;;;;;;5.53;3.25;;;;;;;-0.35;74.68;98029.16;5050691;28;20048;-58
2022/12/12 12:00:17;;;;;;;5.68;3.42;;;;;;;-1.32;71.07;98029.81;5050226;28;20099;-53
2022/12/12 12:03:20;;;;;;;5.60;3.20;;;;;;;-1.14;69.77;98030.91;5050121;28;20131;-57
2022/12/12 12:06:34;;;;;;;6.40;3.47;;;;;;;-1.13;69.07;98028.31;5049852;28;20051;-52
2022/12/12 12:09:52;;;;;;;5.13;3.33;;;;;;;-1.04;70.33;98023.75;5049896;28;20059;-57
2022/12/12 12:12:48;;;;;;;4.50;2.83;;;;;;;-1.37;69.51;98041.06;5047498;28;20114;-55
2022/12/12 12:15:41;;;;;;;5.15;3.40;;;;;;;-1.23;69.11;98039.78;5044860;28;20053;-56
2022/12/12 12:18:52;;;;;;;4.97;2.92;;;;;;;-1.26;71.29;98033.00;5044385;28;20505;-59
2022/12/12 12:21:54;;;;;;;5.10;2.90;;;;;;;-1.32;72.21;98045.22;5045215;28;20040;-57
2022/12/12 12:24:54;;;;;;;4.78;2.95;;;;;;;-1.61;71.90;98030.66;5049883;28;20106;-57
2022/12/12 12:27:49;;;;;;;5.40;3.10;;;;;;;-1.40;73.37;98043.72;5050192;28;20048;-60
2022/12/12 12:30:53;;;;;;;27.95;4.63;;;;;;;-1.26;78.30;98037.31;5049694;28;20041;-60
2022/12/12 12:33:56;;;;;;;5.68;3.10;;;;;;;-0.83;78.45;98040.19;5049439;28;20098;-59
2022/12/12 12:37:11;;;;;;;4.32;2.67;;;;;;;-1.11;75.13;98033.41;5050301;28;20074;-58
2022/12/12 12:40:02;;;;;;;4.97;3.08;;;;;;;-1.67;74.65;98030.84;5029834;28;20152;-61
2022/12/12 12:43:02;;;;;;;5.13;3.23;;;;;;;-1.37;73.12;98035.91;5037093;28;20033;-58
2022/12/12 12:45:58;;;;;;;5.28;3.05;;;;;;;-1.59;77.00;98038.31;5048683;28;20094;-58
2022/12/12 12:48:51;;;;;;;4.47;2.90;;;;;;;-1.07;78.16;98035.00;5048718;28;20119;-59
2022/12/12 12:51:43;;;;;;;5.80;3.38;;;;;;;-1.31;76.78;98034.91;5049687;28;20545;-59
2022/12/12 12:54:44;;;;;;;7.13;3.10;;;;;;;-0.68;84.70;98041.41;5039396;28;20041;-57
2022/12/12 12:57:33;;;;;;;5.00;2.97;;;;;;;-0.52;81.95;98039.16;5038544;28;20049;-61
2022/12/12 13:00:22;;;;;;;5.70;3.25;;;;;;;-0.91;75.08;98027.59;5049144;28;20068;-60
2022/12/12 13:03:16;;;;;;;5.80;3.00;;;;;;;-0.43;78.24;98037.16;5048067;28;20804;-58
2022/12/12 13:06:07;;;;;;;5.63;3.20;;;;;;;-0.44;78.97;98031.16;5030561;28;20056;-60
2022/12/12 13:09:07;;;;;;;6.07;4.07;;;;;;;0.25;77.45;98031.28;5048374;28;20057;-59
2022/12/12 13:12:02;;;;;;;6.38;3.65;;;;;;;0.39;78.56;98042.78;5047998;28;20415;-60
2022/12/12 13:15:23;;;;;;;5.93;3.45;;;;;;;1.38;74.46;98040.56;5034531;28;20056;-62
2022/12/12 13:18:16;;;;;;;6.28;3.58;;;;;;;2.38;71.19;98033.63;5033841;28;20482;-60
2022/12/12 13:21:12;;;;;;;6.80;4.40;;;;;;;1.38;71.79;98037.13;5047983;28;20084;-60
2022/12/12 13:24:41;;;;;;;7.60;4.35;;;;;;;0.75;73.01;98049.16;5049400;28;20040;-59
2022/12/12 13:27:33;;;;;;;7.15;4.68;;;;;;;0.54;73.52;98044.78;5032566;28;20114;-59
2022/12/12 13:30:28;;;;;;;7.68;4.82;;;;;;;0.34;74.88;98045.56;5047315;28;20221;-60
2022/12/12 13:33:26;;;;;;;7.90;4.82;;;;;;;-0.19;78.70;98056.03;5036242;28;20053;-61
2022/12/12 13:36:20;;;;;;;7.10;4.82;;;;;;;-0.75;80.55;98053.66;5028763;28;20186;-60
2022/12/12 13:39:07;;;;;;;8.05;4.50;;;;;;;-0.87;85.26;98072.06;5046528;28;20483;-59
2022/12/12 13:42:00;;;;;;;8.73;4.60;;;;;;;-0.89;82.58;98071.28;5046651;28;20056;-61
2022/12/12 13:44:47;;;;;;;6.72;4.25;;;;;;;-0.92;85.14;98072.22;5037821;28;20582;-59
2022/12/12 13:47:34;;;;;;;9.30;5.22;;;;;;;-0.92;83.45;98081.66;5045680;28;20550;-60
2022/12/12 13:50:21;;;;;;;7.75;4.88;;;;;;;-1.14;84.45;98078.06;5046365;28;20057;-61
2022/12/12 13:53:06;;;;;;;8.45;5.32;;;;;;;-1.33;87.04;98082.94;5046538;28;20459;-60
2022/12/12 13:56:29;;;;;;;7.15;4.70;;;;;;;-1.49;87.55;98074.84;5048169;28;20060;-60
2022/12/12 13:59:25;;;;;;;7.00;4.45;;;;;;;-1.55;91.68;98082.75;5049743;28;20512;-60
2022/12/12 14:02:29;;;;;;;9.25;5.40;;;;;;;-1.42;90.63;98090.94;5048905;28;20049;-60
2022/12/12 14:05:31;;;;;;;7.28;4.38;;;;;;;-1.46;89.23;98089.31;5050998;28;20041;-60
2022/12/12 14:08:17;;;;;;;;;;;;;;;-1.89;90.24;98093.13;5053161;28;20049;-59
2022/12/12 14:11:04;;;;;;;7.97;5.18;;;;;;;-2.07;92.11;98101.34;5052410;28;20001;-59
2022/12/12 14:13:49;;;;;;;7.68;4.80;;;;;;;-1.92;90.84;98094.91;5051937;28;20052;-60
2022/12/12 14:16:36;;;;;;;7.95;5.20;;;;;;;-2.09;92.23;98097.97;5051715;28;20044;-59